sensor_id;sensor_type;location;lat;lon;timestamp;pressure;altitude;pressure_sealevel;temperature;humidity
67013;BME280;53926;47.406;19.188;2023-02-19T00:01:31;100407.16;;;10.54;83.88
67013;BME280;53926;47.406;19.188;2023-02-19T00:03:59;100414.22;;;10.34;84.98
67013;BME280;53926;47.406;19.188;2023-02-19T00:06:27;100415.97;;;10.60;82.91
67013;BME280;53926;47.406;19.188;2023-02-19T00:08:54;100410.19;;;10.58;83.21
67013;BME280;53926;47.406;19.188;2023-02-19T00:11:25;100402.72;;;10.75;81.74
67013;BME280;53926;47.406;19.188;2023-02-19T00:13:54;100402.53;;;10.70;81.74
67013;BME280;53926;47.406;19.188;2023-02-19T00:16:25;100399.94;;;10.63;81.84
67013;BME280;53926;47.406;19.188;2023-02-19T00:18:53;100406.59;;;10.52;82.81
67013;BME280;53926;47.406;19.188;2023-02-19T00:21:21;100413.75;;;10.64;82.16
67013;BME280;53926;47.406;19.188;2023-02-19T00:23:53;100411.59;;;10.41;83.28
67013;BME280;53926;47.406;19.188;2023-02-19T00:26:20;100410.41;;;10.23;84.48
67013;BME280;53926;47.406;19.188;2023-02-19T00:28:48;100422.41;;;10.24;84.77
67013;BME280;53926;47.406;19.188;2023-02-19T00:33:51;100410.81;;;10.13;85.33
67013;BME280;53926;47.406;19.188;2023-02-19T00:36:18;100408.59;;;10.10;85.69
67013;BME280;53926;47.406;19.188;2023-02-19T00:38:47;100406.03;;;9.97;86.37
67013;BME280;53926;47.406;19.188;2023-02-19T00:41:15;100403.22;;;9.78;87.52
67013;BME280;53926;47.406;19.188;2023-02-19T00:43:55;100410.63;;;9.88;87.35
67013;BME280;53926;47.406;19.188;2023-02-19T00:46:36;100410.84;;;10.00;86.52
67013;BME280;53926;47.406;19.188;2023-02-19T00:49:05;100409.22;;;9.72;88.49
67013;BME280;53926;47.406;19.188;2023-02-19T00:51:36;100404.41;;;9.76;88.34
67013;BME280;53926;47.406;19.188;2023-02-19T00:54:04;100409.41;;;9.97;87.07
67013;BME280;53926;47.406;19.188;2023-02-19T00:56:31;100400.00;;;9.90;87.77
67013;BME280;53926;47.406;19.188;2023-02-19T00:58:58;100404.81;;;9.93;87.52
67013;BME280;53926;47.406;19.188;2023-02-19T01:01:25;100409.22;;;9.92;87.55
67013;BME280;53926;47.406;19.188;2023-02-19T01:03:51;100412.03;;;9.91;87.86
67013;BME280;53926;47.406;19.188;2023-02-19T01:06:19;100406.41;;;9.87;88.34
67013;BME280;53926;47.406;19.188;2023-02-19T01:08:47;100409.00;;;9.80;89.01
67013;BME280;53926;47.406;19.188;2023-02-19T01:11:15;100405.81;;;9.72;89.88
67013;BME280;53926;47.406;19.188;2023-02-19T01:13:42;100413.00;;;9.63;90.44
67013;BME280;53926;47.406;19.188;2023-02-19T01:16:18;100396.81;;;9.68;90.45
67013;BME280;53926;47.406;19.188;2023-02-19T01:18:45;100394.41;;;9.79;90.16
67013;BME280;53926;47.406;19.188;2023-02-19T01:21:16;100393.63;;;9.72;90.50
67013;BME280;53926;47.406;19.188;2023-02-19T01:23:43;100401.59;;;9.64;91.55
67013;BME280;53926;47.406;19.188;2023-02-19T01:26:13;100399.41;;;9.74;91.37
67013;BME280;53926;47.406;19.188;2023-02-19T01:28:40;100396.81;;;9.74;91.69
67013;BME280;53926;47.406;19.188;2023-02-19T01:31:11;100392.00;;;9.64;93.04
67013;BME280;53926;47.406;19.188;2023-02-19T01:33:38;100381.81;;;9.83;92.63
67013;BME280;53926;47.406;19.188;2023-02-19T01:36:06;100394.59;;;9.98;92.01
67013;BME280;53926;47.406;19.188;2023-02-19T01:38:32;100385.59;;;10.00;91.77
67013;BME280;53926;47.406;19.188;2023-02-19T01:41:05;100379.22;;;10.03;91.68
67013;BME280;53926;47.406;19.188;2023-02-19T01:43:34;100390.00;;;10.13;90.83
67013;BME280;53926;47.406;19.188;2023-02-19T01:46:00;100389.41;;;10.11;90.71
67013;BME280;53926;47.406;19.188;2023-02-19T01:48:33;100381.22;;;9.88;92.15
67013;BME280;53926;47.406;19.188;2023-02-19T01:51:10;100378.19;;;9.64;93.83
67013;BME280;53926;47.406;19.188;2023-02-19T01:53:44;100380.19;;;9.55;94.31
67013;BME280;53926;47.406;19.188;2023-02-19T01:56:13;100373.19;;;9.56;94.58
67013;BME280;53926;47.406;19.188;2023-02-19T01:58:42;100370.97;;;9.39;95.38
67013;BME280;53926;47.406;19.188;2023-02-19T02:01:09;100375.19;;;9.60;94.35
67013;BME280;53926;47.406;19.188;2023-02-19T02:03:39;100375.19;;;9.47;95.02
67013;BME280;53926;47.406;19.188;2023-02-19T02:06:12;100368.00;;;9.49;94.96
67013;BME280;53926;47.406;19.188;2023-02-19T02:08:41;100373.41;;;9.47;94.75
67013;BME280;53926;47.406;19.188;2023-02-19T02:11:26;100365.56;;;9.34;95.54
67013;BME280;53926;47.406;19.188;2023-02-19T02:13:55;100366.94;;;9.30;96.08
67013;BME280;53926;47.406;19.188;2023-02-19T02:16:32;100360.78;;;9.44;95.52
67013;BME280;53926;47.406;19.188;2023-02-19T02:30:27;100353.81;;;9.85;93.28
67013;BME280;53926;47.406;19.188;2023-02-19T02:33:32;100342.00;;;9.96;92.55
67013;BME280;53926;47.406;19.188;2023-02-19T02:36:24;100338.78;;;9.80;93.19
67013;BME280;53926;47.406;19.188;2023-02-19T02:38:54;100356.38;;;9.92;92.19
67013;BME280;53926;47.406;19.188;2023-02-19T02:41:22;100352.00;;;9.85;92.57
67013;BME280;53926;47.406;19.188;2023-02-19T02:43:49;100356.19;;;9.87;92.57
67013;BME280;53926;47.406;19.188;2023-02-19T02:46:31;100346.41;;;9.95;91.94
67013;BME280;53926;47.406;19.188;2023-02-19T02:49:20;100350.00;;;9.81;92.74
67013;BME280;53926;47.406;19.188;2023-02-19T02:51:51;100358.59;;;9.88;92.35
67013;BME280;53926;47.406;19.188;2023-02-19T02:54:25;100359.78;;;9.85;92.60
67013;BME280;53926;47.406;19.188;2023-02-19T02:57:13;100360.19;;;9.96;92.12
67013;BME280;53926;47.406;19.188;2023-02-19T02:59:41;100357.19;;;10.12;91.09
67013;BME280;53926;47.406;19.188;2023-02-19T03:02:17;100349.56;;;10.04;91.93
67013;BME280;53926;47.406;19.188;2023-02-19T03:07:47;100358.38;;;10.10;92.17
67013;BME280;53926;47.406;19.188;2023-02-19T03:10:21;100367.78;;;10.17;92.54
67013;BME280;53926;47.406;19.188;2023-02-19T03:12:51;100373.97;;;10.16;93.52
67013;BME280;53926;47.406;19.188;2023-02-19T03:15:44;100376.00;;;10.01;94.97
67013;BME280;53926;47.406;19.188;2023-02-19T03:18:32;100374.41;;;9.93;96.49
67013;BME280;53926;47.406;19.188;2023-02-19T03:21:21;100365.41;;;9.96;97.15
67013;BME280;53926;47.406;19.188;2023-02-19T03:23:49;100371.59;;;9.75;98.92
67013;BME280;53926;47.406;19.188;2023-02-19T03:26:35;100372.81;;;9.72;99.66
67013;BME280;53926;47.406;19.188;2023-02-19T03:29:04;100374.00;;;9.76;99.15
67013;BME280;53926;47.406;19.188;2023-02-19T03:31:56;100378.59;;;9.61;99.72
67013;BME280;53926;47.406;19.188;2023-02-19T03:34:29;100384.38;;;9.49;100.00
67013;BME280;53926;47.406;19.188;2023-02-19T03:37:09;100388.38;;;9.32;100.00
67013;BME280;53926;47.406;19.188;2023-02-19T03:39:38;100393.72;;;9.24;100.00
67013;BME280;53926;47.406;19.188;2023-02-19T03:47:21;100387.19;;;8.80;100.00
67013;BME280;53926;47.406;19.188;2023-02-19T03:55:16;100383.97;;;8.43;100.00
67013;BME280;53926;47.406;19.188;2023-02-19T03:57:52;100391.88;;;8.28;100.00
67013;BME280;53926;47.406;19.188;2023-02-19T04:03:20;100383.41;;;7.91;100.00
67013;BME280;53926;47.406;19.188;2023-02-19T04:05:55;100381.31;;;7.79;100.00
67013;BME280;53926;47.406;19.188;2023-02-19T04:08:25;100381.38;;;7.86;100.00
67013;BME280;53926;47.406;19.188;2023-02-19T04:10:52;100366.88;;;7.92;100.00
67013;BME280;53926;47.406;19.188;2023-02-19T04:13:29;100371.44;;;7.90;100.00
67013;BME280;53926;47.406;19.188;2023-02-19T04:16:02;100370.28;;;7.70;100.00
67013;BME280;53926;47.406;19.188;2023-02-19T04:18:33;100367.03;;;7.62;100.00
67013;BME280;53926;47.406;19.188;2023-02-19T04:21:02;100377.97;;;7.85;100.00
67013;BME280;53926;47.406;19.188;2023-02-19T04:23:35;100374.59;;;7.85;100.00
67013;BME280;53926;47.406;19.188;2023-02-19T04:26:04;100369.94;;;8.30;100.00
67013;BME280;53926;47.406;19.188;2023-02-19T04:28:33;100378.94;;;8.34;100.00
67013;BME280;53926;47.406;19.188;2023-02-19T04:31:00;100374.59;;;8.76;100.00
67013;BME280;53926;47.406;19.188;2023-02-19T04:33:27;100366.22;;;8.81;100.00
67013;BME280;53926;47.406;19.188;2023-02-19T04:35:54;100368.66;;;8.89;98.75
67013;BME280;53926;47.406;19.188;2023-02-19T04:38:20;100371.91;;;9.05;97.17
67013;BME280;53926;47.406;19.188;2023-02-19T04:40:47;100376.31;;;9.04;97.12
67013;BME280;53926;47.406;19.188;2023-02-19T04:43:17;100379.41;;;8.80;98.28
67013;BME280;53926;47.406;19.188;2023-02-19T04:45:43;100379.00;;;8.83;98.62
67013;BME280;53926;47.406;19.188;2023-02-19T04:48:10;100380.66;;;9.04;97.67
67013;BME280;53926;47.406;19.188;2023-02-19T04:50:38;100383.25;;;8.90;98.22
67013;BME280;53926;47.406;19.188;2023-02-19T04:53:05;100387.38;;;8.78;98.70
67013;BME280;53926;47.406;19.188;2023-02-19T04:55:37;100385.19;;;8.75;99.50
67013;BME280;53926;47.406;19.188;2023-02-19T04:58:04;100375.87;;;8.52;100.00
67013;BME280;53926;47.406;19.188;2023-02-19T05:00:30;100386.78;;;8.41;100.00
67013;BME280;53926;47.406;19.188;2023-02-19T05:03:00;100387.84;;;8.25;100.00
67013;BME280;53926;47.406;19.188;2023-02-19T05:05:26;100395.69;;;8.03;100.00
67013;BME280;53926;47.406;19.188;2023-02-19T05:07:53;100394.03;;;7.96;100.00
67013;BME280;53926;47.406;19.188;2023-02-19T05:10:20;100395.22;;;7.93;100.00
67013;BME280;53926;47.406;19.188;2023-02-19T05:12:46;100391.44;;;8.24;100.00
67013;BME280;53926;47.406;19.188;2023-02-19T05:15:13;100391.53;;;8.37;100.00
67013;BME280;53926;47.406;19.188;2023-02-19T05:17:40;100396.31;;;8.40;100.00
67013;BME280;53926;47.406;19.188;2023-02-19T05:20:07;100394.28;;;8.29;100.00
67013;BME280;53926;47.406;19.188;2023-02-19T05:22:33;100392.34;;;8.38;100.00
67013;BME280;53926;47.406;19.188;2023-02-19T05:25:00;100387.44;;;8.50;100.00
67013;BME280;53926;47.406;19.188;2023-02-19T05:27:29;100391.44;;;8.52;100.00
67013;BME280;53926;47.406;19.188;2023-02-19T05:29:56;100392.87;;;8.55;100.00
67013;BME280;53926;47.406;19.188;2023-02-19T05:32:22;100392.72;;;8.70;100.00
67013;BME280;53926;47.406;19.188;2023-02-19T05:34:50;100386.94;;;8.74;100.00
67013;BME280;53926;47.406;19.188;2023-02-19T05:37:17;100393.37;;;8.79;100.00
67013;BME280;53926;47.406;19.188;2023-02-19T05:39:43;100385.19;;;8.75;100.00
67013;BME280;53926;47.406;19.188;2023-02-19T05:42:12;100384.78;;;8.78;100.00
67013;BME280;53926;47.406;19.188;2023-02-19T05:44:40;100371.03;;;8.84;100.00
67013;BME280;53926;47.406;19.188;2023-02-19T05:47:07;100377.78;;;8.72;100.00
67013;BME280;53926;47.406;19.188;2023-02-19T05:49:33;100377.69;;;8.58;100.00
67013;BME280;53926;47.406;19.188;2023-02-19T05:52:00;100366.00;;;8.41;100.00
67013;BME280;53926;47.406;19.188;2023-02-19T05:54:28;100379.66;;;8.21;100.00
67013;BME280;53926;47.406;19.188;2023-02-19T05:56:55;100385.19;;;8.12;100.00
67013;BME280;53926;47.406;19.188;2023-02-19T05:59:23;100390.38;;;8.12;100.00
67013;BME280;53926;47.406;19.188;2023-02-19T06:01:52;100388.28;;;8.00;100.00
67013;BME280;53926;47.406;19.188;2023-02-19T06:04:19;100393.47;;;8.00;100.00
67013;BME280;53926;47.406;19.188;2023-02-19T06:06:47;100397.00;;;7.93;100.00
67013;BME280;53926;47.406;19.188;2023-02-19T06:09:13;100405.81;;;7.98;100.00
67013;BME280;53926;47.406;19.188;2023-02-19T06:11:40;100407.44;;;7.99;100.00
67013;BME280;53926;47.406;19.188;2023-02-19T06:14:11;100404.13;;;8.12;100.00
67013;BME280;53926;47.406;19.188;2023-02-19T06:16:37;100392.41;;;8.16;100.00
67013;BME280;53926;47.406;19.188;2023-02-19T06:19:04;100403.75;;;8.15;100.00
67013;BME280;53926;47.406;19.188;2023-02-19T06:21:31;100403.94;;;8.14;100.00
67013;BME280;53926;47.406;19.188;2023-02-19T06:23:57;100398.72;;;8.07;100.00
67013;BME280;53926;47.406;19.188;2023-02-19T06:26:24;100389.28;;;7.99;100.00
67013;BME280;53926;47.406;19.188;2023-02-19T06:28:52;100386.00;;;7.91;100.00
67013;BME280;53926;47.406;19.188;2023-02-19T06:31:20;100393.34;;;7.87;100.00
67013;BME280;53926;47.406;19.188;2023-02-19T06:33:48;100385.94;;;7.84;100.00
67013;BME280;53926;47.406;19.188;2023-02-19T06:36:18;100382.19;;;7.86;100.00
67013;BME280;53926;47.406;19.188;2023-02-19T06:38:45;100377.50;;;7.75;100.00
67013;BME280;53926;47.406;19.188;2023-02-19T06:41:12;100389.00;;;7.66;100.00
67013;BME280;53926;47.406;19.188;2023-02-19T06:43:40;100381.59;;;7.63;100.00
67013;BME280;53926;47.406;19.188;2023-02-19T06:46:07;100379.78;;;7.63;100.00
67013;BME280;53926;47.406;19.188;2023-02-19T06:48:37;100378.12;;;7.56;100.00
67013;BME280;53926;47.406;19.188;2023-02-19T06:51:05;100374.09;;;7.53;100.00
67013;BME280;53926;47.406;19.188;2023-02-19T06:53:31;100382.87;;;7.52;100.00
67013;BME280;53926;47.406;19.188;2023-02-19T06:58:26;100381.28;;;7.51;100.00
67013;BME280;53926;47.406;19.188;2023-02-19T07:00:53;100377.91;;;7.50;100.00
67013;BME280;53926;47.406;19.188;2023-02-19T07:03:20;100378.56;;;7.59;100.00
67013;BME280;53926;47.406;19.188;2023-02-19T07:05:50;100370.00;;;7.59;100.00
67013;BME280;53926;47.406;19.188;2023-02-19T07:08:16;100375.91;;;7.52;100.00
67013;BME280;53926;47.406;19.188;2023-02-19T07:10:44;100374.59;;;7.63;100.00
67013;BME280;53926;47.406;19.188;2023-02-19T07:13:11;100373.25;;;7.67;100.00
67013;BME280;53926;47.406;19.188;2023-02-19T07:15:38;100377.62;;;7.67;100.00
67013;BME280;53926;47.406;19.188;2023-02-19T07:18:04;100381.84;;;7.68;100.00
67013;BME280;53926;47.406;19.188;2023-02-19T07:20:35;100385.84;;;7.70;100.00
67013;BME280;53926;47.406;19.188;2023-02-19T07:23:02;100383.88;;;7.73;100.00
67013;BME280;53926;47.406;19.188;2023-02-19T07:25:29;100387.31;;;7.80;100.00
67013;BME280;53926;47.406;19.188;2023-02-19T07:27:56;100392.13;;;7.83;100.00
67013;BME280;53926;47.406;19.188;2023-02-19T07:30:22;100393.66;;;7.77;100.00
67013;BME280;53926;47.406;19.188;2023-02-19T07:32:49;100384.28;;;7.76;100.00
67013;BME280;53926;47.406;19.188;2023-02-19T07:35:16;100385.81;;;7.92;100.00
67013;BME280;53926;47.406;19.188;2023-02-19T07:37:42;100383.47;;;7.97;100.00
67013;BME280;53926;47.406;19.188;2023-02-19T07:40:09;100384.47;;;7.96;100.00
67013;BME280;53926;47.406;19.188;2023-02-19T07:42:36;100373.94;;;8.04;100.00
67013;BME280;53926;47.406;19.188;2023-02-19T07:45:03;100371.72;;;8.01;100.00
67013;BME280;53926;47.406;19.188;2023-02-19T07:47:30;100376.91;;;8.01;100.00
67013;BME280;53926;47.406;19.188;2023-02-19T07:49:56;100377.66;;;8.23;100.00
67013;BME280;53926;47.406;19.188;2023-02-19T07:52:23;100372.72;;;8.29;100.00
67013;BME280;53926;47.406;19.188;2023-02-19T07:54:50;100370.94;;;8.36;100.00
67013;BME280;53926;47.406;19.188;2023-02-19T07:57:16;100367.78;;;8.40;100.00
67013;BME280;53926;47.406;19.188;2023-02-19T07:59:43;100370.75;;;8.37;100.00
67013;BME280;53926;47.406;19.188;2023-02-19T08:02:15;100379.06;;;8.54;100.00
67013;BME280;53926;47.406;19.188;2023-02-19T08:05:01;100382.75;;;8.38;100.00
67013;BME280;53926;47.406;19.188;2023-02-19T08:07:37;100389.41;;;8.48;100.00
67013;BME280;53926;47.406;19.188;2023-02-19T08:10:09;100388.94;;;8.72;100.00
67013;BME280;53926;47.406;19.188;2023-02-19T08:12:58;100395.97;;;8.79;100.00
67013;BME280;53926;47.406;19.188;2023-02-19T08:15:45;100396.53;;;8.74;100.00
67013;BME280;53926;47.406;19.188;2023-02-19T08:18:13;100406.81;;;8.54;100.00
67013;BME280;53926;47.406;19.188;2023-02-19T08:20:40;100413.41;;;8.28;100.00
67013;BME280;53926;47.406;19.188;2023-02-19T08:23:08;100408.78;;;8.23;100.00
67013;BME280;53926;47.406;19.188;2023-02-19T08:25:35;100412.09;;;8.11;100.00
67013;BME280;53926;47.406;19.188;2023-02-19T08:28:03;100420.41;;;7.99;100.00
67013;BME280;53926;47.406;19.188;2023-02-19T08:30:30;100416.75;;;7.94;100.00
67013;BME280;53926;47.406;19.188;2023-02-19T08:33:00;100426.06;;;7.88;100.00
67013;BME280;53926;47.406;19.188;2023-02-19T08:35:27;100432.78;;;7.82;100.00
67013;BME280;53926;47.406;19.188;2023-02-19T08:37:58;100429.91;;;7.92;100.00
67013;BME280;53926;47.406;19.188;2023-02-19T08:40:25;100424.34;;;7.95;100.00
67013;BME280;53926;47.406;19.188;2023-02-19T08:42:52;100427.53;;;7.97;100.00
67013;BME280;53926;47.406;19.188;2023-02-19T08:45:18;100420.22;;;8.01;100.00
67013;BME280;53926;47.406;19.188;2023-02-19T08:47:45;100423.63;;;8.08;100.00
67013;BME280;53926;47.406;19.188;2023-02-19T08:50:12;100417.50;;;8.16;100.00
67013;BME280;53926;47.406;19.188;2023-02-19T08:52:38;100417.22;;;8.26;100.00
67013;BME280;53926;47.406;19.188;2023-02-19T08:55:05;100415.59;;;8.24;100.00
67013;BME280;53926;47.406;19.188;2023-02-19T08:57:35;100413.03;;;8.31;100.00
67013;BME280;53926;47.406;19.188;2023-02-19T09:00:04;100413.19;;;8.23;100.00
67013;BME280;53926;47.406;19.188;2023-02-19T09:02:32;100422.12;;;8.20;100.00
67013;BME280;53926;47.406;19.188;2023-02-19T09:04:58;100413.56;;;8.20;100.00
67013;BME280;53926;47.406;19.188;2023-02-19T09:07:25;100413.56;;;8.20;100.00
67013;BME280;53926;47.406;19.188;2023-02-19T09:09:52;100417.31;;;8.17;100.00
67013;BME280;53926;47.406;19.188;2023-02-19T09:12:19;100417.31;;;8.17;100.00
67013;BME280;53926;47.406;19.188;2023-02-19T09:14:46;100411.94;;;8.19;100.00
67013;BME280;53926;47.406;19.188;2023-02-19T09:17:13;100411.88;;;8.34;100.00
67013;BME280;53926;47.406;19.188;2023-02-19T09:19:39;100409.69;;;8.37;100.00
67013;BME280;53926;47.406;19.188;2023-02-19T09:22:06;100407.84;;;8.31;100.00
67013;BME280;53926;47.406;19.188;2023-02-19T09:24:33;100410.59;;;8.51;100.00
67013;BME280;53926;47.406;19.188;2023-02-19T09:26:59;100407.22;;;8.51;100.00
67013;BME280;53926;47.406;19.188;2023-02-19T09:29:27;100409.00;;;8.50;100.00
67013;BME280;53926;47.406;19.188;2023-02-19T09:31:58;100405.25;;;8.31;100.00
67013;BME280;53926;47.406;19.188;2023-02-19T09:34:26;100416.94;;;8.20;100.00
67013;BME280;53926;47.406;19.188;2023-02-19T09:36:56;100408.19;;;8.21;100.00
67013;BME280;53926;47.406;19.188;2023-02-19T09:39:22;100402.28;;;8.34;100.00
67013;BME280;53926;47.406;19.188;2023-02-19T09:41:55;100399.19;;;8.46;100.00
67013;BME280;53926;47.406;19.188;2023-02-19T09:44:31;100397.63;;;8.51;100.00
67013;BME280;53926;47.406;19.188;2023-02-19T09:47:00;100389.75;;;8.73;100.00
67013;BME280;53926;47.406;19.188;2023-02-19T09:49:38;100383.09;;;8.64;100.00
67013;BME280;53926;47.406;19.188;2023-02-19T09:54:54;100382.59;;;8.82;100.00
67013;BME280;53926;47.406;19.188;2023-02-19T09:57:24;100379.22;;;8.88;100.00
67013;BME280;53926;47.406;19.188;2023-02-19T10:00:04;100383.63;;;8.87;100.00
67013;BME280;53926;47.406;19.188;2023-02-19T10:02:34;100376.66;;;8.94;100.00
67013;BME280;53926;47.406;19.188;2023-02-19T10:05:02;100380.31;;;9.13;100.00
67013;BME280;53926;47.406;19.188;2023-02-19T10:07:38;100380.53;;;9.19;100.00
67013;BME280;53926;47.406;19.188;2023-02-19T10:12:42;100358.34;;;9.23;100.00
67013;BME280;53926;47.406;19.188;2023-02-19T10:15:16;100359.81;;;9.72;100.00
67013;BME280;53926;47.406;19.188;2023-02-19T10:17:44;100353.34;;;11.32;100.00
67013;BME280;53926;47.406;19.188;2023-02-19T10:20:15;100332.97;;;13.56;100.00
67013;BME280;53926;47.406;19.188;2023-02-19T10:22:43;100334.19;;;15.57;96.37
67013;BME280;53926;47.406;19.188;2023-02-19T10:25:14;100330.38;;;15.99;91.35
67013;BME280;53926;47.406;19.188;2023-02-19T10:27:42;100322.69;;;17.88;80.46
67013;BME280;53926;47.406;19.188;2023-02-19T10:30:18;100332.09;;;17.36;78.47
67013;BME280;53926;47.406;19.188;2023-02-19T10:33:08;100330.91;;;18.60;72.15
67013;BME280;53926;47.406;19.188;2023-02-19T10:35:54;100331.75;;;18.76;71.82
67013;BME280;53926;47.406;19.188;2023-02-19T10:38:39;100321.63;;;18.42;71.75
67013;BME280;53926;47.406;19.188;2023-02-19T10:43:41;100311.94;;;19.76;67.91
67013;BME280;53926;47.406;19.188;2023-02-19T10:46:15;100309.09;;;19.47;65.34
67013;BME280;53926;47.406;19.188;2023-02-19T10:48:53;100300.94;;;18.08;69.77
67013;BME280;53926;47.406;19.188;2023-02-19T10:51:29;100305.56;;;16.56;78.26
67013;BME280;53926;47.406;19.188;2023-02-19T10:54:16;100294.97;;;16.23;78.19
67013;BME280;53926;47.406;19.188;2023-02-19T10:56:46;100295.09;;;15.38;83.25
67013;BME280;53926;47.406;19.188;2023-02-19T10:59:27;100282.13;;;14.98;85.81
67013;BME280;53926;47.406;19.188;2023-02-19T11:04:28;100267.59;;;15.97;81.35
67013;BME280;53926;47.406;19.188;2023-02-19T11:07:10;100259.34;;;15.88;80.61
67013;BME280;53926;47.406;19.188;2023-02-19T11:09:43;100262.22;;;17.18;75.00
67013;BME280;53926;47.406;19.188;2023-02-19T11:12:13;100253.75;;;17.96;71.45
67013;BME280;53926;47.406;19.188;2023-02-19T11:14:48;100251.56;;;17.88;69.67
67013;BME280;53926;47.406;19.188;2023-02-19T11:17:29;100236.56;;;19.08;65.53
67013;BME280;53926;47.406;19.188;2023-02-19T11:19:59;100234.22;;;19.93;61.41
67013;BME280;53926;47.406;19.188;2023-02-19T11:22:38;100228.62;;;19.08;61.18
67013;BME280;53926;47.406;19.188;2023-02-19T11:30:38;100221.62;;;19.79;56.26
67013;BME280;53926;47.406;19.188;2023-02-19T11:35:43;100205.88;;;19.33;60.44
67013;BME280;53926;47.406;19.188;2023-02-19T11:38:12;100197.38;;;20.17;57.73
67013;BME280;53926;47.406;19.188;2023-02-19T11:41:10;100190.91;;;18.92;58.84
67013;BME280;53926;47.406;19.188;2023-02-19T11:47:19;100177.44;;;18.53;56.33
67013;BME280;53926;47.406;19.188;2023-02-19T11:50:26;100186.88;;;17.49;57.34
67013;BME280;53926;47.406;19.188;2023-02-19T11:59:02;100196.69;;;17.11;57.94
67013;BME280;53926;47.406;19.188;2023-02-19T12:10:15;100190.31;;;16.75;60.07
67013;BME280;53926;47.406;19.188;2023-02-19T12:16:16;100179.69;;;15.61;62.28
67013;BME280;53926;47.406;19.188;2023-02-19T12:21:57;100184.75;;;16.12;60.69
67013;BME280;53926;47.406;19.188;2023-02-19T12:28:15;100191.53;;;17.32;55.66
67013;BME280;53926;47.406;19.188;2023-02-19T12:33:37;100186.19;;;17.22;55.81
67013;BME280;53926;47.406;19.188;2023-02-19T12:45:00;100171.81;;;16.65;57.28
67013;BME280;53926;47.406;19.188;2023-02-19T12:47:38;100185.44;;;16.02;60.37
67013;BME280;53926;47.406;19.188;2023-02-19T12:50:17;100188.69;;;15.48;61.90
67013;BME280;53926;47.406;19.188;2023-02-19T12:52:54;100190.72;;;15.63;62.94
67013;BME280;53926;47.406;19.188;2023-02-19T12:55:28;100193.31;;;16.02;60.72
67013;BME280;53926;47.406;19.188;2023-02-19T12:57:57;100203.53;;;16.25;59.44
67013;BME280;53926;47.406;19.188;2023-02-19T13:03:04;100194.25;;;16.72;58.62
67013;BME280;53926;47.406;19.188;2023-02-19T13:06:02;100198.00;;;16.22;60.25
67013;BME280;53926;47.406;19.188;2023-02-19T13:08:55;100190.81;;;15.51;63.27
67013;BME280;53926;47.406;19.188;2023-02-19T13:11:39;100202.19;;;15.00;69.37
67013;BME280;53926;47.406;19.188;2023-02-19T13:14:20;100191.69;;;13.09;88.90
67013;BME280;53926;47.406;19.188;2023-02-19T13:16:55;100200.91;;;12.27;92.27
67013;BME280;53926;47.406;19.188;2023-02-19T13:19:23;100193.53;;;11.69;98.69
67013;BME280;53926;47.406;19.188;2023-02-19T13:21:57;100170.44;;;11.54;100.00
67013;BME280;53926;47.406;19.188;2023-02-19T13:24:46;100178.28;;;11.28;99.87
67013;BME280;53926;47.406;19.188;2023-02-19T13:30:05;100186.34;;;11.02;100.00
67013;BME280;53926;47.406;19.188;2023-02-19T13:32:43;100169.16;;;10.94;100.00
67013;BME280;53926;47.406;19.188;2023-02-19T13:37:49;100169.56;;;11.60;100.00
67013;BME280;53926;47.406;19.188;2023-02-19T13:40:40;100174.12;;;11.83;99.07
67013;BME280;53926;47.406;19.188;2023-02-19T13:43:25;100175.44;;;12.11;99.81
67013;BME280;53926;47.406;19.188;2023-02-19T13:45:58;100174.72;;;12.34;98.40
67013;BME280;53926;47.406;19.188;2023-02-19T13:48:29;100165.31;;;13.22;92.41
67013;BME280;53926;47.406;19.188;2023-02-19T13:59:11;100175.78;;;12.99;92.12
67013;BME280;53926;47.406;19.188;2023-02-19T14:04:43;100189.50;;;12.10;87.95
67013;BME280;53926;47.406;19.188;2023-02-19T14:14:42;100231.25;;;10.72;100.00
67013;BME280;53926;47.406;19.188;2023-02-19T14:25:43;100255.00;;;9.31;100.00
67013;BME280;53926;47.406;19.188;2023-02-19T14:33:34;100273.63;;;9.15;100.00
67013;BME280;53926;47.406;19.188;2023-02-19T14:36:05;100276.56;;;9.05;100.00
67013;BME280;53926;47.406;19.188;2023-02-19T14:38:38;100264.41;;;9.06;100.00
67013;BME280;53926;47.406;19.188;2023-02-19T14:41:09;100271.22;;;9.13;100.00
67013;BME280;53926;47.406;19.188;2023-02-19T14:43:38;100285.19;;;9.12;100.00
67013;BME280;53926;47.406;19.188;2023-02-19T14:46:13;100291.00;;;9.21;100.00
67013;BME280;53926;47.406;19.188;2023-02-19T14:48:44;100292.62;;;9.29;100.00
67013;BME280;53926;47.406;19.188;2023-02-19T14:51:38;100302.00;;;9.43;100.00
67013;BME280;53926;47.406;19.188;2023-02-19T14:54:15;100314.81;;;9.58;100.00
67013;BME280;53926;47.406;19.188;2023-02-19T14:56:46;100308.78;;;9.58;100.00
67013;BME280;53926;47.406;19.188;2023-02-19T14:59:24;100309.62;;;9.58;100.00
67013;BME280;53926;47.406;19.188;2023-02-19T15:02:15;100310.41;;;9.39;100.00
67013;BME280;53926;47.406;19.188;2023-02-19T15:04:46;100311.41;;;9.44;100.00
67013;BME280;53926;47.406;19.188;2023-02-19T15:07:17;100300.81;;;9.53;100.00
67013;BME280;53926;47.406;19.188;2023-02-19T15:09:50;100294.59;;;9.40;100.00
67013;BME280;53926;47.406;19.188;2023-02-19T15:12:20;100290.00;;;9.16;100.00
67013;BME280;53926;47.406;19.188;2023-02-19T15:14:50;100275.59;;;9.06;100.00
67013;BME280;53926;47.406;19.188;2023-02-19T15:17:26;100266.78;;;8.94;100.00